Aviation Digital Data Service (ADDS)

Output produced by METARs form (2348 UTC 18 August 2019)
found at http://www.aviationweather.gov/metar/data/
 
Forecast for: LFPV (VILLACOUBLAY/VEL, FR)
Text: TAF LFPV 182000Z 1821/1921 29005KT CAVOK
Forecast period: 2100 UTC 18 August 2019 to 2100 UTC 19 August 2019
Forecast type: FROM: standard forecast or significant change
Winds: from the WNW (290 degrees) at 6 MPH (5 knots; 2.6 m/s)
Visibility: 6 or more miles 10+ km)
Ceiling: unknown
Clouds: missing
Weather: NSW  (no significant weather)